sensor_id;sensor_type;location;lat;lon;timestamp;pressure;altitude;pressure_sealevel;temperature;humidity
77303;BME280;66363;49.828;7.856;2023-04-03T00:02:10;101214.81;;;4.34;67.74
77303;BME280;66363;49.828;7.856;2023-04-03T00:04:37;101218.13;;;4.41;67.58
77303;BME280;66363;49.828;7.856;2023-04-03T00:07:02;101185.75;;;4.08;68.36
77303;BME280;66363;49.828;7.856;2023-04-03T00:09:33;101236.28;;;4.49;67.81
77303;BME280;66363;49.828;7.856;2023-04-03T00:11:59;101239.66;;;4.54;67.24
77303;BME280;66363;49.828;7.856;2023-04-03T00:14:25;101235.47;;;4.47;68.32
77303;BME280;66363;49.828;7.856;2023-04-03T00:16:51;101244.88;;;4.55;68.36
77303;BME280;66363;49.828;7.856;2023-04-03T00:19:17;101243.34;;;4.47;68.34
77303;BME280;66363;49.828;7.856;2023-04-03T00:21:45;101245.16;;;4.44;68.26
77303;BME280;66363;49.828;7.856;2023-04-03T00:24:11;101217.50;;;4.31;67.93
77303;BME280;66363;49.828;7.856;2023-04-03T00:26:37;101245.81;;;4.53;68.70
77303;BME280;66363;49.828;7.856;2023-04-03T00:29:03;101243.56;;;4.40;69.58
77303;BME280;66363;49.828;7.856;2023-04-03T00:31:29;101251.19;;;4.48;69.06
77303;BME280;66363;49.828;7.856;2023-04-03T00:33:54;101222.06;;;4.25;69.83
77303;BME280;66363;49.828;7.856;2023-04-03T00:36:20;101251.38;;;4.42;70.06
77303;BME280;66363;49.828;7.856;2023-04-03T00:38:47;101236.94;;;4.26;69.63
77303;BME280;66363;49.828;7.856;2023-04-03T00:41:13;101227.41;;;4.22;70.10
77303;BME280;66363;49.828;7.856;2023-04-03T00:43:39;101245.47;;;4.34;69.73
77303;BME280;66363;49.828;7.856;2023-04-03T00:46:04;101210.19;;;4.12;70.05
77303;BME280;66363;49.828;7.856;2023-04-03T00:48:32;101244.44;;;4.39;69.44
77303;BME280;66363;49.828;7.856;2023-04-03T00:51:01;101213.31;;;4.24;70.34
77303;BME280;66363;49.828;7.856;2023-04-03T00:53:31;101214.38;;;4.17;70.26
77303;BME280;66363;49.828;7.856;2023-04-03T00:56:06;101235.25;;;4.23;71.32
77303;BME280;66363;49.828;7.856;2023-04-03T00:58:35;101238.84;;;4.19;72.99
77303;BME280;66363;49.828;7.856;2023-04-03T01:01:06;101239.75;;;4.18;73.26
77303;BME280;66363;49.828;7.856;2023-04-03T01:03:32;101208.81;;;3.97;74.71
77303;BME280;66363;49.828;7.856;2023-04-03T01:05:58;101208.75;;;3.98;75.01
77303;BME280;66363;49.828;7.856;2023-04-03T01:08:24;101230.22;;;4.16;72.96
77303;BME280;66363;49.828;7.856;2023-04-03T01:10:50;101218.84;;;4.15;72.84
77303;BME280;66363;49.828;7.856;2023-04-03T01:13:24;101229.00;;;4.27;71.58
77303;BME280;66363;49.828;7.856;2023-04-03T01:15:50;101227.50;;;4.17;71.57
77303;BME280;66363;49.828;7.856;2023-04-03T01:18:16;101196.91;;;3.84;72.93
77303;BME280;66363;49.828;7.856;2023-04-03T01:21:30;101224.63;;;4.28;71.83
77303;BME280;66363;49.828;7.856;2023-04-03T01:24:16;101232.91;;;4.13;72.74
77303;BME280;66363;49.828;7.856;2023-04-03T01:26:45;101226.38;;;4.27;70.22
77303;BME280;66363;49.828;7.856;2023-04-03T01:29:13;101221.25;;;4.23;70.03
77303;BME280;66363;49.828;7.856;2023-04-03T01:31:52;101223.91;;;4.21;69.89
77303;BME280;66363;49.828;7.856;2023-04-03T01:34:18;101230.84;;;4.24;71.47
77303;BME280;66363;49.828;7.856;2023-04-03T01:36:44;101196.50;;;3.99;70.96
77303;BME280;66363;49.828;7.856;2023-04-03T01:39:10;101221.41;;;4.17;73.44
77303;BME280;66363;49.828;7.856;2023-04-03T01:41:36;101219.91;;;4.08;72.25
77303;BME280;66363;49.828;7.856;2023-04-03T01:44:02;101236.41;;;4.13;71.30
77303;BME280;66363;49.828;7.856;2023-04-03T01:46:31;101227.63;;;4.14;72.71
77303;BME280;66363;49.828;7.856;2023-04-03T01:48:58;101228.84;;;4.01;73.08
77303;BME280;66363;49.828;7.856;2023-04-03T01:51:23;101236.47;;;4.10;69.91
77303;BME280;66363;49.828;7.856;2023-04-03T01:53:49;101230.41;;;4.08;71.98
77303;BME280;66363;49.828;7.856;2023-04-03T01:56:15;101203.63;;;3.94;71.52
77303;BME280;66363;49.828;7.856;2023-04-03T01:58:41;101224.25;;;4.09;72.24
77303;BME280;66363;49.828;7.856;2023-04-03T02:01:07;101231.16;;;4.13;70.24
77303;BME280;66363;49.828;7.856;2023-04-03T02:03:33;101213.16;;;3.98;69.96
77303;BME280;66363;49.828;7.856;2023-04-03T02:06:00;101219.03;;;4.07;70.60
77303;BME280;66363;49.828;7.856;2023-04-03T02:08:26;101224.34;;;4.06;70.76
77303;BME280;66363;49.828;7.856;2023-04-03T02:10:52;101216.69;;;3.97;70.38
77303;BME280;66363;49.828;7.856;2023-04-03T02:13:18;101215.78;;;3.98;70.70
77303;BME280;66363;49.828;7.856;2023-04-03T02:15:44;101225.31;;;4.02;70.89
77303;BME280;66363;49.828;7.856;2023-04-03T02:18:10;101222.91;;;3.93;71.37
77303;BME280;66363;49.828;7.856;2023-04-03T02:20:38;101223.69;;;3.96;71.33
77303;BME280;66363;49.828;7.856;2023-04-03T02:23:06;101228.97;;;3.95;71.56
77303;BME280;66363;49.828;7.856;2023-04-03T02:25:32;101180.59;;;3.71;71.61
77303;BME280;66363;49.828;7.856;2023-04-03T02:27:58;101196.31;;;3.72;70.39
77303;BME280;66363;49.828;7.856;2023-04-03T02:30:24;101196.59;;;3.62;70.97
77303;BME280;66363;49.828;7.856;2023-04-03T02:32:50;101229.31;;;3.83;71.13
77303;BME280;66363;49.828;7.856;2023-04-03T02:35:15;101219.69;;;3.83;70.72
77303;BME280;66363;49.828;7.856;2023-04-03T02:37:41;101218.84;;;3.81;71.11
77303;BME280;66363;49.828;7.856;2023-04-03T02:40:09;101222.91;;;3.93;70.34
77303;BME280;66363;49.828;7.856;2023-04-03T02:42:35;101220.31;;;3.91;71.01
77303;BME280;66363;49.828;7.856;2023-04-03T02:45:01;101200.72;;;3.70;71.95
77303;BME280;66363;49.828;7.856;2023-04-03T02:47:27;101189.47;;;3.65;71.04
77303;BME280;66363;49.828;7.856;2023-04-03T02:49:53;101211.25;;;3.69;72.04
77303;BME280;66363;49.828;7.856;2023-04-03T02:52:19;101198.72;;;3.46;72.65
77303;BME280;66363;49.828;7.856;2023-04-03T02:54:45;101215.22;;;3.51;72.52
77303;BME280;66363;49.828;7.856;2023-04-03T02:57:12;101221.41;;;3.49;72.34
77303;BME280;66363;49.828;7.856;2023-04-03T02:59:38;101212.13;;;3.34;73.08
77303;BME280;66363;49.828;7.856;2023-04-03T03:02:04;101202.00;;;3.19;72.66
77303;BME280;66363;49.828;7.856;2023-04-03T03:04:31;101195.88;;;3.18;73.12
77303;BME280;66363;49.828;7.856;2023-04-03T03:06:56;101172.69;;;3.01;73.45
77303;BME280;66363;49.828;7.856;2023-04-03T03:09:23;101222.69;;;3.31;73.85
77303;BME280;66363;49.828;7.856;2023-04-03T03:11:48;101188.97;;;3.14;73.39
77303;BME280;66363;49.828;7.856;2023-04-03T03:14:16;101233.13;;;3.34;73.30
77303;BME280;66363;49.828;7.856;2023-04-03T03:16:41;101210.50;;;3.28;73.66
77303;BME280;66363;49.828;7.856;2023-04-03T03:19:07;101231.22;;;3.39;73.72
77303;BME280;66363;49.828;7.856;2023-04-03T03:21:33;101224.44;;;3.32;73.60
77303;BME280;66363;49.828;7.856;2023-04-03T03:23:58;101239.28;;;3.33;73.17
77303;BME280;66363;49.828;7.856;2023-04-03T03:26:24;101233.19;;;3.31;73.75
77303;BME280;66363;49.828;7.856;2023-04-03T03:28:50;101199.38;;;3.19;72.50
77303;BME280;66363;49.828;7.856;2023-04-03T03:31:17;101230.44;;;3.37;72.78
77303;BME280;66363;49.828;7.856;2023-04-03T03:33:44;101164.81;;;3.01;73.42
77303;BME280;66363;49.828;7.856;2023-04-03T03:36:10;101216.66;;;3.27;74.26
77303;BME280;66363;49.828;7.856;2023-04-03T03:38:41;101234.13;;;3.28;74.33
77303;BME280;66363;49.828;7.856;2023-04-03T03:41:10;101223.03;;;3.16;73.19
77303;BME280;66363;49.828;7.856;2023-04-03T03:43:36;101229.13;;;3.16;74.49
77303;BME280;66363;49.828;7.856;2023-04-03T03:46:02;101200.69;;;2.99;74.91
77303;BME280;66363;49.828;7.856;2023-04-03T03:48:29;101217.00;;;3.12;74.28
77303;BME280;66363;49.828;7.856;2023-04-03T03:51:01;101233.66;;;3.11;75.00
77303;BME280;66363;49.828;7.856;2023-04-03T03:53:27;101231.16;;;3.05;75.75
77303;BME280;66363;49.828;7.856;2023-04-03T03:56:01;101234.78;;;2.99;75.74
77303;BME280;66363;49.828;7.856;2023-04-03T03:58:27;101237.53;;;2.92;75.91
77303;BME280;66363;49.828;7.856;2023-04-03T04:00:52;101228.00;;;2.89;75.62
77303;BME280;66363;49.828;7.856;2023-04-03T04:03:18;101236.00;;;2.83;75.92
77303;BME280;66363;49.828;7.856;2023-04-03T04:05:45;101182.69;;;2.43;76.22
77303;BME280;66363;49.828;7.856;2023-04-03T04:08:11;101236.78;;;2.87;76.12
77303;BME280;66363;49.828;7.856;2023-04-03T04:10:37;101200.91;;;2.49;75.55
77303;BME280;66363;49.828;7.856;2023-04-03T04:13:03;101207.88;;;2.50;76.38
77303;BME280;66363;49.828;7.856;2023-04-03T04:15:28;101208.88;;;2.43;76.93
77303;BME280;66363;49.828;7.856;2023-04-03T04:17:54;101208.13;;;2.36;77.72
77303;BME280;66363;49.828;7.856;2023-04-03T04:20:20;101208.22;;;2.33;77.76
77303;BME280;66363;49.828;7.856;2023-04-03T04:22:47;101233.28;;;2.45;78.79
77303;BME280;66363;49.828;7.856;2023-04-03T04:25:13;101236.81;;;2.42;78.58
77303;BME280;66363;49.828;7.856;2023-04-03T04:27:39;101216.94;;;2.33;78.54
77303;BME280;66363;49.828;7.856;2023-04-03T04:30:05;101202.28;;;2.23;77.58
77303;BME280;66363;49.828;7.856;2023-04-03T04:32:31;101235.25;;;2.33;78.66
77303;BME280;66363;49.828;7.856;2023-04-03T04:34:57;101211.06;;;2.21;78.44
77303;BME280;66363;49.828;7.856;2023-04-03T04:37:22;101232.66;;;2.33;78.52
77303;BME280;66363;49.828;7.856;2023-04-03T04:39:49;101217.22;;;2.17;78.71
77303;BME280;66363;49.828;7.856;2023-04-03T04:42:15;101194.91;;;1.97;78.96
77303;BME280;66363;49.828;7.856;2023-04-03T04:44:41;101205.44;;;1.94;78.88
77303;BME280;66363;49.828;7.856;2023-04-03T04:47:06;101190.66;;;1.90;79.48
77303;BME280;66363;49.828;7.856;2023-04-03T04:49:32;101225.41;;;2.00;79.92
77303;BME280;66363;49.828;7.856;2023-04-03T04:51:58;101239.34;;;2.02;80.54
77303;BME280;66363;49.828;7.856;2023-04-03T04:54:24;101242.69;;;2.09;79.70
77303;BME280;66363;49.828;7.856;2023-04-03T04:56:51;101242.00;;;1.99;80.24
77303;BME280;66363;49.828;7.856;2023-04-03T04:59:16;101229.19;;;1.82;79.80
77303;BME280;66363;49.828;7.856;2023-04-03T05:01:42;101243.84;;;1.92;79.76
77303;BME280;66363;49.828;7.856;2023-04-03T05:04:08;101240.16;;;2.06;79.32
77303;BME280;66363;49.828;7.856;2023-04-03T05:06:33;101247.22;;;2.00;79.69
77303;BME280;66363;49.828;7.856;2023-04-03T05:08:59;101240.41;;;1.90;79.32
77303;BME280;66363;49.828;7.856;2023-04-03T05:11:25;101252.47;;;1.99;78.46
77303;BME280;66363;49.828;7.856;2023-04-03T05:13:52;101246.31;;;2.01;78.98
77303;BME280;66363;49.828;7.856;2023-04-03T05:16:18;101209.22;;;1.78;77.86
77303;BME280;66363;49.828;7.856;2023-04-03T05:18:44;101239.44;;;1.96;77.92
77303;BME280;66363;49.828;7.856;2023-04-03T05:21:09;101229.91;;;1.92;77.51
77303;BME280;66363;49.828;7.856;2023-04-03T05:23:35;101271.44;;;2.12;77.39
77303;BME280;66363;49.828;7.856;2023-04-03T05:26:00;101264.34;;;2.18;76.81
77303;BME280;66363;49.828;7.856;2023-04-03T05:28:26;101260.66;;;2.28;76.22
77303;BME280;66363;49.828;7.856;2023-04-03T05:30:57;101218.22;;;2.10;76.45
77303;BME280;66363;49.828;7.856;2023-04-03T05:33:24;101224.22;;;2.16;75.68
77303;BME280;66363;49.828;7.856;2023-04-03T05:35:50;101278.59;;;2.50;75.69
77303;BME280;66363;49.828;7.856;2023-04-03T05:38:15;101277.69;;;2.52;75.75
77303;BME280;66363;49.828;7.856;2023-04-03T05:40:41;101288.72;;;2.68;74.79
77303;BME280;66363;49.828;7.856;2023-04-03T05:43:07;101288.63;;;2.72;74.07
77303;BME280;66363;49.828;7.856;2023-04-03T05:45:32;101271.97;;;2.77;72.97
77303;BME280;66363;49.828;7.856;2023-04-03T05:47:59;101289.25;;;2.85;72.05
77303;BME280;66363;49.828;7.856;2023-04-03T05:50:25;101297.06;;;2.87;70.83
77303;BME280;66363;49.828;7.856;2023-04-03T05:52:52;101290.97;;;2.86;70.68
77303;BME280;66363;49.828;7.856;2023-04-03T05:55:20;101285.00;;;2.80;69.85
77303;BME280;66363;49.828;7.856;2023-04-03T05:57:46;101298.03;;;2.83;69.55
77303;BME280;66363;49.828;7.856;2023-04-03T06:00:13;101292.81;;;2.83;69.72
77303;BME280;66363;49.828;7.856;2023-04-03T06:02:39;101290.97;;;2.86;69.17
77303;BME280;66363;49.828;7.856;2023-04-03T06:05:07;101295.22;;;2.92;69.47
77303;BME280;66363;49.828;7.856;2023-04-03T06:07:33;101284.03;;;2.85;69.27
77303;BME280;66363;49.828;7.856;2023-04-03T06:09:59;101287.28;;;2.96;69.21
77303;BME280;66363;49.828;7.856;2023-04-03T06:12:25;101292.84;;;3.21;69.13
77303;BME280;66363;49.828;7.856;2023-04-03T06:14:51;101259.97;;;3.06;68.59
77303;BME280;66363;49.828;7.856;2023-04-03T06:17:17;101275.13;;;3.32;67.63
77303;BME280;66363;49.828;7.856;2023-04-03T06:19:43;101284.44;;;3.46;68.23
77303;BME280;66363;49.828;7.856;2023-04-03T06:22:10;101260.78;;;3.47;66.91
77303;BME280;66363;49.828;7.856;2023-04-03T06:24:36;101270.88;;;3.64;66.32
77303;BME280;66363;49.828;7.856;2023-04-03T06:27:02;101285.44;;;3.77;66.13
77303;BME280;66363;49.828;7.856;2023-04-03T06:29:27;101291.13;;;3.94;66.08
77303;BME280;66363;49.828;7.856;2023-04-03T06:31:53;101288.66;;;3.90;64.91
77303;BME280;66363;49.828;7.856;2023-04-03T06:34:19;101259.78;;;3.90;64.88
77303;BME280;66363;49.828;7.856;2023-04-03T06:36:45;101294.28;;;4.10;65.63
77303;BME280;66363;49.828;7.856;2023-04-03T06:39:14;101324.25;;;4.35;65.13
77303;BME280;66363;49.828;7.856;2023-04-03T06:41:40;101275.47;;;4.25;63.84
77303;BME280;66363;49.828;7.856;2023-04-03T06:44:06;101281.56;;;4.27;63.53
77303;BME280;66363;49.828;7.856;2023-04-03T06:46:32;101321.88;;;4.59;64.27
77303;BME280;66363;49.828;7.856;2023-04-03T06:48:57;101295.81;;;4.17;63.89
77303;BME280;66363;49.828;7.856;2023-04-03T06:51:25;101314.75;;;4.30;63.17
77303;BME280;66363;49.828;7.856;2023-04-03T06:53:52;101289.94;;;4.07;63.43
77303;BME280;66363;49.828;7.856;2023-04-03T06:56:20;101323.88;;;4.49;62.85
77303;BME280;66363;49.828;7.856;2023-04-03T06:58:46;101339.97;;;4.69;63.12
77303;BME280;66363;49.828;7.856;2023-04-03T07:01:15;101308.78;;;4.57;62.84
77303;BME280;66363;49.828;7.856;2023-04-03T07:03:41;101329.84;;;4.88;61.66
77303;BME280;66363;49.828;7.856;2023-04-03T07:06:08;101351.16;;;5.39;61.10
77303;BME280;66363;49.828;7.856;2023-04-03T07:08:34;101314.81;;;5.23;60.18
77303;BME280;66363;49.828;7.856;2023-04-03T07:11:01;101336.47;;;5.01;60.81
77303;BME280;66363;49.828;7.856;2023-04-03T07:13:28;101301.53;;;4.67;62.24
77303;BME280;66363;49.828;7.856;2023-04-03T07:15:53;101359.78;;;5.15;61.33
77303;BME280;66363;49.828;7.856;2023-04-03T07:18:19;101340.09;;;5.28;61.19
77303;BME280;66363;49.828;7.856;2023-04-03T07:20:45;101339.13;;;5.60;59.85
77303;BME280;66363;49.828;7.856;2023-04-03T07:23:11;101360.06;;;6.21;57.88
77303;BME280;66363;49.828;7.856;2023-04-03T07:25:37;101319.66;;;6.20;58.19
77303;BME280;66363;49.828;7.856;2023-04-03T07:28:07;101331.91;;;6.97;56.14
77303;BME280;66363;49.828;7.856;2023-04-03T07:30:34;101357.72;;;7.59;55.43
77303;BME280;66363;49.828;7.856;2023-04-03T07:33:00;101344.94;;;7.25;55.21
77303;BME280;66363;49.828;7.856;2023-04-03T07:35:25;101336.22;;;7.23;54.25
77303;BME280;66363;49.828;7.856;2023-04-03T07:37:51;101369.25;;;7.33;54.28
77303;BME280;66363;49.828;7.856;2023-04-03T07:40:17;101363.38;;;7.27;54.48
77303;BME280;66363;49.828;7.856;2023-04-03T07:42:42;101319.69;;;6.95;53.86
77303;BME280;66363;49.828;7.856;2023-04-03T07:45:08;101363.03;;;6.63;56.72
77303;BME280;66363;49.828;7.856;2023-04-03T07:47:35;101365.41;;;6.95;54.47
77303;BME280;66363;49.828;7.856;2023-04-03T07:50:01;101359.28;;;7.87;53.02
77303;BME280;66363;49.828;7.856;2023-04-03T07:52:27;101317.75;;;8.32;49.58
77303;BME280;66363;49.828;7.856;2023-04-03T07:54:52;101374.97;;;9.55;47.52
77303;BME280;66363;49.828;7.856;2023-04-03T07:57:18;101314.00;;;9.74;45.93
77303;BME280;66363;49.828;7.856;2023-04-03T07:59:43;101324.16;;;10.19;45.59
77303;BME280;66363;49.828;7.856;2023-04-03T08:02:09;101334.47;;;10.77;42.15
77303;BME280;66363;49.828;7.856;2023-04-03T08:04:37;101362.28;;;12.00;41.82
77303;BME280;66363;49.828;7.856;2023-04-03T08:07:03;101338.63;;;11.80;40.59
77303;BME280;66363;49.828;7.856;2023-04-03T08:09:28;101319.41;;;12.36;38.01
77303;BME280;66363;49.828;7.856;2023-04-03T08:11:54;101363.84;;;12.04;39.94
77303;BME280;66363;49.828;7.856;2023-04-03T08:14:20;101322.00;;;11.12;40.42
77303;BME280;66363;49.828;7.856;2023-04-03T08:16:46;101346.19;;;12.33;37.80
77303;BME280;66363;49.828;7.856;2023-04-03T08:19:13;101359.16;;;12.23;38.88
77303;BME280;66363;49.828;7.856;2023-04-03T08:21:41;101341.00;;;12.90;37.30
77303;BME280;66363;49.828;7.856;2023-04-03T08:24:07;101319.91;;;13.30;35.05
77303;BME280;66363;49.828;7.856;2023-04-03T08:26:33;101365.91;;;13.19;36.67
77303;BME280;66363;49.828;7.856;2023-04-03T08:28:58;101324.25;;;12.88;37.65
77303;BME280;66363;49.828;7.856;2023-04-03T08:31:24;101356.78;;;13.23;36.82
77303;BME280;66363;49.828;7.856;2023-04-03T08:33:50;101328.69;;;13.32;35.03
77303;BME280;66363;49.828;7.856;2023-04-03T08:36:18;101341.84;;;14.44;32.82
77303;BME280;66363;49.828;7.856;2023-04-03T08:38:46;101317.03;;;13.88;34.44
77303;BME280;66363;49.828;7.856;2023-04-03T08:41:15;101356.78;;;14.19;35.07
77303;BME280;66363;49.828;7.856;2023-04-03T08:43:55;101380.38;;;14.92;32.52
77303;BME280;66363;49.828;7.856;2023-04-03T08:46:23;101345.75;;;15.16;32.38
77303;BME280;66363;49.828;7.856;2023-04-03T08:48:51;101351.91;;;15.54;31.91
77303;BME280;66363;49.828;7.856;2023-04-03T08:51:20;101355.66;;;16.84;30.60
77303;BME280;66363;49.828;7.856;2023-04-03T08:53:54;101329.72;;;16.84;29.73
77303;BME280;66363;49.828;7.856;2023-04-03T08:56:24;101348.91;;;16.67;30.34
77303;BME280;66363;49.828;7.856;2023-04-03T08:58:55;101383.50;;;16.70;29.36
77303;BME280;66363;49.828;7.856;2023-04-03T09:01:24;101372.44;;;16.51;29.55
77303;BME280;66363;49.828;7.856;2023-04-03T09:03:51;101391.09;;;16.05;30.73
77303;BME280;66363;49.828;7.856;2023-04-03T09:06:20;101373.63;;;16.36;30.96
77303;BME280;66363;49.828;7.856;2023-04-03T09:08:51;101391.09;;;16.76;31.62
77303;BME280;66363;49.828;7.856;2023-04-03T09:11:22;101375.75;;;16.54;31.42
77303;BME280;66363;49.828;7.856;2023-04-03T09:13:53;101364.84;;;15.60;31.79
77303;BME280;66363;49.828;7.856;2023-04-03T09:16:27;101374.50;;;15.63;31.55
77303;BME280;66363;49.828;7.856;2023-04-03T09:19:02;101370.00;;;16.48;30.12
77303;BME280;66363;49.828;7.856;2023-04-03T09:21:35;101364.81;;;16.92;29.07
77303;BME280;66363;49.828;7.856;2023-04-03T09:24:05;101367.63;;;16.32;28.87
77303;BME280;66363;49.828;7.856;2023-04-03T09:26:34;101369.38;;;17.48;27.66
77303;BME280;66363;49.828;7.856;2023-04-03T09:29:05;101336.44;;;17.68;27.79
77303;BME280;66363;49.828;7.856;2023-04-03T09:31:36;101330.00;;;18.14;25.96
77303;BME280;66363;49.828;7.856;2023-04-03T09:34:06;101378.25;;;17.93;26.64
77303;BME280;66363;49.828;7.856;2023-04-03T09:36:43;101365.84;;;17.81;25.57
77303;BME280;66363;49.828;7.856;2023-04-03T09:39:14;101358.88;;;17.11;27.99
77303;BME280;66363;49.828;7.856;2023-04-03T09:41:40;101369.22;;;18.05;27.38
77303;BME280;66363;49.828;7.856;2023-04-03T09:44:20;101366.03;;;18.00;25.92
77303;BME280;66363;49.828;7.856;2023-04-03T09:46:46;101378.13;;;17.05;27.56
77303;BME280;66363;49.828;7.856;2023-04-03T09:49:12;101345.53;;;16.76;28.38
77303;BME280;66363;49.828;7.856;2023-04-03T09:51:38;101342.28;;;17.17;27.67
77303;BME280;66363;49.828;7.856;2023-04-03T09:54:29;101372.78;;;16.46;29.41
77303;BME280;66363;49.828;7.856;2023-04-03T09:56:56;101361.41;;;18.02;27.54
77303;BME280;66363;49.828;7.856;2023-04-03T09:59:25;101357.91;;;17.23;27.32
77303;BME280;66363;49.828;7.856;2023-04-03T10:01:57;101370.91;;;16.12;27.95
77303;BME280;66363;49.828;7.856;2023-04-03T10:04:24;101330.25;;;16.66;26.71
77303;BME280;66363;49.828;7.856;2023-04-03T10:06:51;101364.34;;;18.95;26.67
77303;BME280;66363;49.828;7.856;2023-04-03T10:09:21;101373.66;;;19.42;23.44
77303;BME280;66363;49.828;7.856;2023-04-03T10:12:01;101369.72;;;17.99;24.59
77303;BME280;66363;49.828;7.856;2023-04-03T10:14:28;101377.94;;;16.02;26.95
77303;BME280;66363;49.828;7.856;2023-04-03T10:16:59;101384.81;;;16.65;27.29
77303;BME280;66363;49.828;7.856;2023-04-03T10:19:34;101373.00;;;17.02;26.58
77303;BME280;66363;49.828;7.856;2023-04-03T10:22:04;101371.44;;;16.41;27.02
77303;BME280;66363;49.828;7.856;2023-04-03T10:24:43;101371.59;;;15.41;28.12
77303;BME280;66363;49.828;7.856;2023-04-03T10:27:15;101377.81;;;15.54;28.45
77303;BME280;66363;49.828;7.856;2023-04-03T10:29:47;101373.69;;;16.93;24.67
77303;BME280;66363;49.828;7.856;2023-04-03T10:32:28;101367.72;;;16.54;26.71
77303;BME280;66363;49.828;7.856;2023-04-03T10:35:02;101364.00;;;17.81;26.03
77303;BME280;66363;49.828;7.856;2023-04-03T10:37:46;101361.56;;;17.89;25.84
77303;BME280;66363;49.828;7.856;2023-04-03T10:40:24;101343.25;;;14.22;29.22
77303;BME280;66363;49.828;7.856;2023-04-03T10:42:58;101353.41;;;12.47;31.95
77303;BME280;66363;49.828;7.856;2023-04-03T10:45:29;101355.84;;;11.57;35.60
77303;BME280;66363;49.828;7.856;2023-04-03T10:48:04;101367.91;;;15.56;28.30
77303;BME280;66363;49.828;7.856;2023-04-03T10:50:39;101367.63;;;14.70;31.75
77303;BME280;66363;49.828;7.856;2023-04-03T10:53:15;101343.53;;;15.84;30.01
77303;BME280;66363;49.828;7.856;2023-04-03T10:55:51;101355.69;;;13.54;33.45
77303;BME280;66363;49.828;7.856;2023-04-03T10:58:26;101366.38;;;14.88;32.10
77303;BME280;66363;49.828;7.856;2023-04-03T11:00:55;101329.34;;;15.46;29.83
77303;BME280;66363;49.828;7.856;2023-04-03T11:03:30;101379.22;;;15.47;29.84
77303;BME280;66363;49.828;7.856;2023-04-03T11:06:00;101380.03;;;13.05;33.56
77303;BME280;66363;49.828;7.856;2023-04-03T11:08:29;101348.06;;;14.03;32.98
77303;BME280;66363;49.828;7.856;2023-04-03T11:11:03;101364.38;;;13.57;33.84
77303;BME280;66363;49.828;7.856;2023-04-03T11:13:33;101364.13;;;16.43;29.09
77303;BME280;66363;49.828;7.856;2023-04-03T11:16:00;101311.53;;;17.77;28.13
77303;BME280;66363;49.828;7.856;2023-04-03T11:18:34;101342.06;;;19.75;25.27
77303;BME280;66363;49.828;7.856;2023-04-03T11:21:04;101320.31;;;18.96;23.67
77303;BME280;66363;49.828;7.856;2023-04-03T11:23:34;101353.63;;;21.76;21.39
77303;BME280;66363;49.828;7.856;2023-04-03T11:26:09;101353.06;;;20.89;22.42
77303;BME280;66363;49.828;7.856;2023-04-03T11:28:36;101339.28;;;20.15;23.54
77303;BME280;66363;49.828;7.856;2023-04-03T11:31:10;101336.09;;;15.88;29.10
77303;BME280;66363;49.828;7.856;2023-04-03T11:33:45;101337.16;;;15.85;29.57
77303;BME280;66363;49.828;7.856;2023-04-03T11:36:19;101338.53;;;18.72;25.42
77303;BME280;66363;49.828;7.856;2023-04-03T11:38:49;101321.78;;;17.16;25.20
77303;BME280;66363;49.828;7.856;2023-04-03T11:41:25;101331.16;;;18.32;24.88
77303;BME280;66363;49.828;7.856;2023-04-03T11:43:56;101328.75;;;15.79;29.62
77303;BME280;66363;49.828;7.856;2023-04-03T11:46:22;101335.44;;;14.19;31.72
77303;BME280;66363;49.828;7.856;2023-04-03T11:52:13;101312.44;;;12.78;34.31
77303;BME280;66363;49.828;7.856;2023-04-03T11:54:58;101332.63;;;11.92;35.80
77303;BME280;66363;49.828;7.856;2023-04-03T11:58:10;101332.00;;;11.55;35.39
77303;BME280;66363;49.828;7.856;2023-04-03T12:00:55;101322.56;;;13.99;33.27
77303;BME280;66363;49.828;7.856;2023-04-03T12:04:03;101329.59;;;19.13;25.92
77303;BME280;66363;49.828;7.856;2023-04-03T12:06:52;101326.28;;;21.24;23.64
77303;BME280;66363;49.828;7.856;2023-04-03T12:09:25;101313.88;;;21.86;20.71
77303;BME280;66363;49.828;7.856;2023-04-03T12:11:51;101290.53;;;21.67;21.77
77303;BME280;66363;49.828;7.856;2023-04-03T12:14:22;101301.06;;;17.52;25.38
77303;BME280;66363;49.828;7.856;2023-04-03T12:16:48;101307.88;;;17.56;24.40
77303;BME280;66363;49.828;7.856;2023-04-03T12:24:43;101256.47;;;16.84;28.10
77303;BME280;66363;49.828;7.856;2023-04-03T12:27:25;101284.69;;;17.77;26.40
77303;BME280;66363;49.828;7.856;2023-04-03T12:29:56;101241.78;;;16.54;27.53
77303;BME280;66363;49.828;7.856;2023-04-03T12:32:43;101239.13;;;14.35;31.10
77303;BME280;66363;49.828;7.856;2023-04-03T12:35:20;101276.06;;;12.48;34.26
77303;BME280;66363;49.828;7.856;2023-04-03T12:41:16;101282.47;;;12.74;34.87
77303;BME280;66363;49.828;7.856;2023-04-03T12:43:50;101283.09;;;11.74;35.80
77303;BME280;66363;49.828;7.856;2023-04-03T12:46:23;101248.28;;;11.00;36.78
77303;BME280;66363;49.828;7.856;2023-04-03T12:48:51;101266.03;;;11.31;36.06
77303;BME280;66363;49.828;7.856;2023-04-03T12:51:19;101260.53;;;12.71;33.04
77303;BME280;66363;49.828;7.856;2023-04-03T12:53:46;101269.25;;;16.91;28.01
77303;BME280;66363;49.828;7.856;2023-04-03T12:56:20;101242.56;;;15.50;29.36
77303;BME280;66363;49.828;7.856;2023-04-03T12:58:46;101241.16;;;18.26;26.12
77303;BME280;66363;49.828;7.856;2023-04-03T13:01:14;101260.34;;;15.99;27.58
77303;BME280;66363;49.828;7.856;2023-04-03T13:03:44;101227.88;;;14.17;30.34
77303;BME280;66363;49.828;7.856;2023-04-03T13:06:17;101267.78;;;17.21;27.20
77303;BME280;66363;49.828;7.856;2023-04-03T13:08:48;101222.09;;;16.89;27.80
77303;BME280;66363;49.828;7.856;2023-04-03T13:11:14;101270.69;;;16.27;27.49
77303;BME280;66363;49.828;7.856;2023-04-03T13:13:54;101277.31;;;18.22;25.50
77303;BME280;66363;49.828;7.856;2023-04-03T13:16:19;101271.69;;;16.37;27.33